createdAt,value
2019-05-03T11:19:19.617Z,11.1
2019-05-03T11:20:34.480Z,11.5
2019-05-03T11:21:35.662Z,11.3
2019-05-03T11:22:36.434Z,11.3
2019-05-03T11:23:37.264Z,11.4
2019-05-03T11:24:38.088Z,11.4
2019-05-03T11:25:38.919Z,11.4
2019-05-03T11:26:40.073Z,11.4
2019-05-03T11:27:40.956Z,11.4
2019-05-03T11:28:45.554Z,11.4
2019-05-03T11:29:46.383Z,11.4
2019-05-03T11:31:02.590Z,11.4
2019-05-03T11:32:12.067Z,11.4
2019-05-03T11:33:15.924Z,11.3
2019-05-03T11:34:16.756Z,11.2
2019-05-03T11:35:18.622Z,11.2
2019-05-03T11:36:19.456Z,11.2
2019-05-03T11:37:20.280Z,11.2
2019-05-03T11:38:21.139Z,11.1
2019-05-03T11:39:26.240Z,11.1
2019-05-03T11:40:27.067Z,11
2019-05-03T11:41:35.693Z,11.1
2019-05-03T11:42:36.620Z,11.2
2019-05-03T11:43:37.466Z,11.2
2019-05-03T11:44:38.317Z,11.2
2019-05-03T11:45:39.130Z,11.2
2019-05-03T11:46:39.973Z,11.2
2019-05-03T11:47:40.793Z,11.2
2019-05-03T11:49:46.132Z,11.2
2019-05-03T11:50:46.963Z,11.2
2019-05-03T11:51:47.786Z,11.2
2019-05-03T11:52:48.630Z,11.2
2019-05-03T11:53:49.472Z,11.2
2019-05-03T11:54:50.320Z,11.2
2019-05-03T11:55:51.178Z,11.2
2019-05-03T11:56:52.016Z,11.2
2019-05-03T11:57:52.850Z,11.3
2019-05-03T11:58:55.641Z,11.3
2019-05-03T11:59:57.284Z,11.3
2019-05-03T12:01:20.464Z,11.3
2019-05-03T12:02:21.372Z,11.4
2019-05-03T12:03:22.191Z,11.3
2019-05-03T12:04:25.715Z,11.4
2019-05-03T12:05:26.536Z,11.4
2019-05-03T12:06:27.354Z,11.4
2019-05-03T12:07:40.622Z,11.4
2019-05-03T12:08:41.448Z,11.4
2019-05-03T12:09:42.293Z,11.4
2019-05-03T12:11:31.782Z,11.3
2019-05-03T12:12:32.621Z,11.2
2019-05-03T12:13:35.694Z,11.2
2019-05-03T12:14:36.544Z,11.3
2019-05-03T12:15:37.381Z,11.3
2019-05-03T12:18:53.169Z,11.4
2019-05-03T12:20:02.779Z,11.4
2019-05-03T12:21:18.182Z,11.4
2019-05-03T12:22:28.699Z,11.4
2019-05-03T12:23:41.830Z,11.4
2019-05-03T12:24:47.488Z,11.4
2019-05-03T12:25:53.118Z,11.4
2019-05-03T12:26:56.760Z,11.4
2019-05-03T12:27:57.592Z,11.4
2019-05-03T12:28:58.430Z,11.3
2019-05-03T12:29:59.285Z,11.3
2019-05-03T12:31:00.133Z,11.3
2019-05-03T12:32:00.968Z,11.3
2019-05-03T12:33:01.807Z,11.3
2019-05-03T12:34:06.725Z,11.3
2019-05-03T12:35:07.594Z,11.3
2019-05-03T12:36:08.429Z,11.3
2019-05-03T12:37:09.270Z,11.3
2019-05-03T12:38:10.110Z,11.4
2019-05-03T12:39:30.908Z,11.3
2019-05-03T12:40:31.746Z,11.3
2019-05-03T12:42:35.773Z,11.3
2019-05-03T12:43:36.610Z,11.3
2019-05-03T12:44:40.214Z,11.4
2019-05-03T12:45:41.072Z,11.4
2019-05-03T12:46:41.910Z,11.4
2019-05-03T12:47:42.805Z,11.4
2019-05-03T12:48:46.198Z,11.4
2019-05-03T12:49:47.028Z,11.4
2019-05-03T12:50:49.362Z,11.3
2019-05-03T12:51:52.176Z,11.3
2019-05-03T12:52:55.144Z,11.3
2019-05-03T12:53:56.340Z,11.2
2019-05-03T12:56:00.538Z,11.2
2019-05-03T12:57:01.372Z,11.2
2019-05-03T12:58:02.188Z,11.2
2019-05-03T12:59:03.038Z,11.1
2019-05-03T13:00:06.586Z,11.1
2019-05-03T13:01:07.431Z,11
2019-05-03T13:02:08.262Z,11
2019-05-03T13:03:09.105Z,11
2019-05-03T13:05:16.202Z,10.9
2019-05-03T13:06:17.048Z,11
2019-05-03T13:07:17.874Z,11
2019-05-03T13:08:18.705Z,10.9
2019-05-03T13:09:19.552Z,10.9
2019-05-03T13:10:26.854Z,10.9
2019-05-03T13:11:27.704Z,10.9
2019-05-03T13:12:28.551Z,11
2019-05-03T13:13:29.378Z,11
2019-05-03T13:14:30.201Z,11
2019-05-03T13:15:31.822Z,11
2019-05-03T13:16:32.671Z,10.9
2019-05-03T13:17:35.686Z,10.9
2019-05-03T13:18:36.512Z,10.9
2019-05-03T13:19:37.348Z,11
2019-05-03T13:20:38.177Z,11
2019-05-03T13:21:39.033Z,11
2019-05-03T13:23:40.424Z,11
2019-05-03T13:24:41.251Z,11
2019-05-03T13:25:45.978Z,11
2019-05-03T13:26:46.834Z,11
2019-05-03T13:27:47.664Z,10.9
2019-05-03T13:28:48.498Z,10.9
2019-05-03T13:29:49.348Z,11
2019-05-03T13:32:02.751Z,11
2019-05-03T13:33:06.522Z,11
2019-05-03T13:34:07.349Z,11
2019-05-03T13:35:08.185Z,11
2019-05-03T13:36:09.794Z,11
2019-05-03T13:37:10.678Z,11
2019-05-03T13:38:11.515Z,11
2019-05-03T13:39:15.371Z,11
2019-05-03T13:40:16.204Z,11.1
2019-05-03T13:41:17.030Z,11.1
2019-05-03T13:42:17.882Z,11
2019-05-03T13:43:18.714Z,11.1
2019-05-03T13:44:19.542Z,10.9
2019-05-03T13:45:20.374Z,11
2019-05-03T13:46:25.992Z,11
2019-05-03T13:47:26.819Z,11.1
2019-05-03T13:48:49.117Z,11.1
2019-05-03T13:49:50.077Z,11.2
2019-05-03T13:51:51.486Z,11.2
2019-05-03T13:52:52.324Z,11.2
2019-05-03T13:53:55.653Z,11.2
2019-05-03T13:54:56.465Z,11.3
2019-05-03T13:55:57.291Z,11.3
2019-05-03T13:56:58.958Z,11.3
2019-05-03T13:57:59.793Z,11.3
2019-05-03T13:59:00.631Z,11.3
2019-05-03T14:00:01.472Z,11.3
2019-05-03T14:01:02.305Z,11.4
2019-05-03T14:02:19.548Z,11.4
2019-05-03T14:03:20.450Z,11.4
2019-05-03T14:04:21.740Z,11.3
2019-05-03T14:05:24.947Z,11.2
2019-05-03T14:06:25.784Z,11.3
2019-05-03T14:07:29.407Z,11.2
2019-05-03T14:08:30.241Z,11.2
2019-05-03T14:09:31.064Z,11.2
2019-05-03T14:10:31.904Z,11.3
2019-05-03T14:11:32.728Z,11.3
2019-05-03T14:12:35.876Z,11.4
2019-05-03T14:13:36.708Z,11.3
2019-05-03T14:14:37.525Z,11.3
2019-05-03T14:15:38.355Z,11.3
2019-05-03T14:16:39.195Z,11.3
2019-05-03T14:17:44.896Z,11.3
2019-05-03T14:19:46.889Z,11.2
2019-05-03T14:20:47.724Z,11.2
2019-05-03T14:21:48.564Z,11.2
2019-05-03T14:22:49.409Z,11.2
2019-05-03T14:23:50.253Z,11.1
2019-05-03T14:24:51.074Z,11.1
2019-05-03T14:25:51.912Z,11.1
2019-05-03T14:26:52.753Z,11.1
2019-05-03T14:27:59.406Z,11.1
2019-05-03T14:29:00.418Z,11
2019-05-03T14:30:01.275Z,11
2019-05-03T14:31:02.093Z,11.1
2019-05-03T14:32:05.177Z,11.1
2019-05-03T14:33:06.104Z,11.1
2019-05-03T14:34:06.932Z,11.1
2019-05-03T14:35:07.763Z,11
2019-05-03T14:36:08.584Z,11
2019-05-03T14:37:09.431Z,11
2019-05-03T14:38:15.705Z,11
2019-05-03T14:39:16.553Z,11
2019-05-03T14:40:17.379Z,11
2019-05-03T14:41:18.212Z,11.1
2019-05-03T14:42:19.047Z,11.1
2019-05-03T14:44:20.500Z,11.1
2019-05-03T14:45:21.355Z,11
2019-05-03T14:46:36.108Z,11.1
2019-05-03T14:47:37.103Z,11.1
2019-05-03T14:48:40.751Z,11.1
2019-05-03T14:49:41.583Z,11.1
2019-05-03T14:50:42.415Z,11.2
2019-05-03T14:51:45.372Z,11.1
2019-05-03T14:52:46.432Z,11.1
2019-05-03T14:53:47.312Z,11.1
2019-05-03T14:54:48.142Z,11.2
2019-05-03T14:55:48.991Z,11.1
2019-05-03T14:56:49.825Z,11.2
2019-05-03T14:57:50.669Z,11.1
2019-05-03T14:58:56.716Z,11.1
2019-05-03T14:59:57.563Z,11.1
2019-05-03T15:00:58.387Z,11.1
2019-05-03T15:01:59.212Z,11.2
2019-05-03T15:03:00.065Z,11.1
2019-05-03T15:05:01.494Z,11.1
2019-05-03T15:06:04.952Z,11.2
2019-05-03T15:08:07.331Z,11.1
2019-05-03T15:09:08.973Z,11.1
2019-05-03T15:10:09.803Z,11.1
2019-05-03T15:11:10.636Z,11
2019-05-03T15:12:11.465Z,11
2019-05-03T15:13:12.295Z,11.1
2019-05-03T15:14:15.180Z,11
2019-05-03T15:15:16.015Z,10.9
2019-05-03T15:16:16.847Z,10.8
2019-05-03T15:17:17.687Z,10.8
2019-05-03T15:19:21.900Z,10.8
2019-05-03T15:20:22.739Z,10.6
2019-05-03T15:21:26.099Z,10.6
2019-05-03T15:22:26.927Z,10.6
2019-05-03T15:23:27.769Z,10.6
2019-05-03T15:24:28.620Z,10.5
2019-05-03T15:25:29.476Z,10.5
2019-05-03T15:26:30.301Z,10.5
2019-05-03T15:27:31.131Z,10.6
2019-05-03T15:28:31.974Z,10.5
2019-05-03T15:29:37.478Z,10.3
2019-05-03T15:30:38.311Z,10.3
2019-05-03T15:31:39.136Z,10.3
2019-05-03T15:32:43.717Z,10.4
2019-05-03T15:34:01.593Z,10.4
2019-05-03T15:35:04.490Z,10.4
2019-05-03T15:36:05.645Z,10.4
2019-05-03T15:37:06.477Z,10.5
2019-05-03T15:38:07.302Z,10.5
2019-05-03T15:39:08.132Z,10.6
2019-05-03T15:40:11.830Z,10.5
2019-05-03T15:41:14.535Z,10.6
2019-05-03T15:42:15.487Z,10.6
2019-05-03T15:43:16.331Z,10.6
2019-05-03T15:44:17.167Z,10.6
2019-05-03T15:45:18.031Z,10.6
2019-05-03T15:46:18.851Z,10.6
2019-05-03T15:47:19.693Z,10.6
2019-05-03T15:48:20.766Z,10.6
2019-05-03T15:49:21.585Z,10.6
2019-05-03T15:50:31.167Z,10.6
2019-05-03T15:51:32.011Z,10.7
2019-05-03T15:52:32.845Z,10.7
2019-05-03T15:53:36.045Z,10.7
2019-05-03T15:54:36.884Z,10.6
2019-05-03T15:55:37.749Z,10.7
2019-05-03T15:56:38.595Z,10.7
2019-05-03T15:57:39.431Z,10.7
2019-05-03T15:58:40.259Z,10.7
2019-05-03T15:59:41.093Z,10.7
2019-05-03T16:00:45.485Z,10.7
2019-05-03T16:01:46.318Z,10.7
2019-05-03T16:02:47.153Z,10.8
2019-05-03T16:03:47.991Z,10.7
2019-05-03T16:04:48.811Z,10.7
2019-05-03T16:06:50.267Z,10.7
2019-05-03T16:07:51.107Z,10.7
2019-05-03T16:08:51.936Z,10.7
2019-05-03T16:09:52.775Z,10.7
2019-05-03T16:10:56.651Z,10.7
2019-05-03T16:11:57.490Z,10.7
2019-05-03T16:12:58.331Z,10.7
2019-05-03T16:13:59.161Z,10.7
2019-05-03T16:14:59.991Z,10.7
2019-05-03T16:16:00.855Z,10.7
2019-05-03T16:17:01.683Z,10.7
2019-05-03T16:18:02.540Z,10.7
2019-05-03T16:19:06.146Z,10.7
2019-05-03T16:21:12.057Z,10.8
2019-05-03T16:22:15.025Z,10.7
2019-05-03T16:23:16.173Z,10.8
2019-05-03T16:24:17.001Z,10.8
2019-05-03T16:25:17.846Z,10.8
2019-05-03T16:26:18.695Z,10.7
2019-05-03T16:27:19.521Z,10.8
2019-05-03T16:28:21.169Z,10.8
2019-05-03T16:29:22.000Z,10.8
2019-05-03T16:30:26.280Z,10.8
2019-05-03T16:31:29.940Z,10.8
2019-05-03T16:32:30.797Z,10.8
2019-05-03T16:33:31.629Z,10.8
2019-05-03T16:34:32.487Z,10.8
2019-05-03T16:35:38.451Z,10.7
2019-05-03T16:36:39.307Z,10.7
2019-05-03T16:37:40.137Z,10.7
2019-05-03T16:38:40.969Z,10.7
2019-05-03T16:39:41.798Z,10.6
2019-05-03T16:40:42.639Z,10.6
2019-05-03T16:41:50.613Z,10.6
2019-05-03T16:42:51.451Z,10.6
2019-05-03T16:43:52.271Z,10.6
2019-05-03T16:44:54.865Z,10.6
2019-05-03T16:45:55.917Z,10.6
2019-05-03T16:46:56.774Z,10.6
2019-05-03T16:47:57.619Z,10.5
2019-05-03T16:48:58.441Z,10.5
2019-05-03T16:49:59.287Z,10.6
2019-05-03T16:51:00.109Z,10.5
2019-05-03T16:52:06.303Z,10.4
2019-05-03T16:53:07.145Z,10.5
2019-05-03T16:54:07.981Z,10.5
2019-05-03T16:55:08.813Z,10.4
2019-05-03T16:56:09.648Z,10.4
2019-05-03T16:57:10.502Z,10.4
2019-05-03T16:58:11.347Z,10.4
2019-05-03T16:59:12.208Z,10.4
2019-05-03T17:00:15.318Z,10.4
2019-05-03T17:01:18.937Z,10.4
2019-05-03T17:02:20.581Z,10.4
2019-05-03T17:03:21.412Z,10.4
2019-05-03T17:04:22.244Z,10.4
2019-05-03T17:05:24.906Z,10.4
2019-05-03T17:06:27.232Z,10.4
2019-05-03T17:07:28.092Z,10.4
2019-05-03T17:08:28.912Z,10.3
2019-05-03T17:09:29.761Z,10.3
2019-05-03T17:10:30.598Z,10.3
2019-05-03T17:11:31.418Z,10.3
2019-05-03T17:12:35.568Z,10.3
2019-05-03T17:13:36.394Z,10.3
2019-05-03T17:14:37.245Z,10.4
2019-05-03T17:15:38.082Z,10.3
2019-05-03T17:16:38.885Z,10.3
2019-05-03T17:17:48.309Z,10.3
2019-05-03T17:19:01.014Z,10.3
2019-05-03T17:20:06.604Z,10.3
2019-05-03T17:21:07.393Z,10.3
2019-05-03T17:22:08.192Z,10.2
2019-05-03T17:23:11.783Z,10.2
2019-05-03T17:24:12.549Z,10.2
2019-05-03T17:25:15.438Z,10.1
2019-05-03T17:26:18.296Z,10.2
2019-05-03T17:27:19.060Z,10.2
2019-05-03T17:28:19.886Z,10.2
2019-05-03T17:30:21.183Z,10.3
2019-05-03T17:31:22.085Z,10.2
2019-05-03T17:32:25.263Z,10.2
2019-05-03T17:33:28.830Z,10.2
2019-05-03T17:34:29.591Z,10.2
2019-05-03T17:35:30.363Z,10.1
2019-05-03T17:36:31.127Z,10.2
2019-05-03T17:37:31.889Z,10.1
2019-05-03T17:38:32.670Z,10.1
2019-05-03T17:39:35.839Z,10.1
2019-05-03T17:40:36.604Z,10.1
2019-05-03T17:41:37.370Z,10.1
2019-05-03T17:42:38.148Z,10.1
2019-05-03T17:43:41.704Z,10.1
2019-05-03T17:44:42.467Z,10.1
2019-05-03T17:45:43.240Z,10
2019-05-03T17:46:46.073Z,10
2019-05-03T17:47:46.833Z,10
2019-05-03T17:48:47.638Z,10.1
2019-05-03T17:49:48.396Z,10.1
2019-05-03T17:50:49.166Z,10.1
2019-05-03T17:51:49.943Z,10.1
2019-05-03T17:52:50.703Z,10.1
2019-05-03T17:53:55.825Z,10.1
2019-05-03T17:54:56.617Z,10
2019-05-03T17:55:57.375Z,10
2019-05-03T17:56:58.140Z,10.1
2019-05-03T17:57:58.915Z,10.1
2019-05-03T17:58:59.705Z,10
2019-05-03T18:00:00.493Z,10
2019-05-03T18:01:01.257Z,10
2019-05-03T18:02:07.363Z,10
2019-05-03T18:03:08.125Z,10
2019-05-03T18:04:10.417Z,10
2019-05-03T18:05:11.183Z,10
2019-05-03T18:06:11.942Z,10
2019-05-03T18:07:12.706Z,10
2019-05-03T18:08:15.564Z,10
2019-05-03T18:09:16.350Z,10
2019-05-03T18:10:17.122Z,9.9
2019-05-03T18:11:17.889Z,9.9
2019-05-03T18:12:18.664Z,9.9
2019-05-03T18:13:19.442Z,9.9
2019-05-03T18:14:24.988Z,9.8
2019-05-03T18:15:25.861Z,9.8
2019-05-03T18:16:26.628Z,9.8
2019-05-03T18:17:27.398Z,9.8
2019-05-03T18:18:28.181Z,9.8
2019-05-03T18:19:28.980Z,9.8
2019-05-03T18:20:29.744Z,9.8
2019-05-03T18:21:30.512Z,9.8
2019-05-03T18:22:31.279Z,9.8
2019-05-03T18:23:32.040Z,9.8
2019-05-03T18:24:37.425Z,9.8
2019-05-03T18:25:39.256Z,9.8
2019-05-03T18:26:40.015Z,9.8
2019-05-03T18:27:40.782Z,9.7
2019-05-03T18:28:41.543Z,9.8
2019-05-03T18:29:42.330Z,9.8
2019-05-03T18:30:46.187Z,9.7
2019-05-03T18:31:46.947Z,9.7
2019-05-03T18:32:47.710Z,9.8
2019-05-03T18:33:48.483Z,9.8
2019-05-03T18:34:55.405Z,9.7
2019-05-03T18:35:56.164Z,9.7
2019-05-03T18:36:56.927Z,9.8
2019-05-03T18:37:57.694Z,9.8
2019-05-03T18:38:58.456Z,9.7
2019-05-03T18:39:59.228Z,9.7
2019-05-03T18:40:59.994Z,9.8
2019-05-03T18:42:00.752Z,9.8
2019-05-03T18:43:01.507Z,9.7
2019-05-03T18:44:02.264Z,9.6
2019-05-03T18:45:07.246Z,9.6
2019-05-03T18:46:08.002Z,9.6
2019-05-03T18:47:08.778Z,9.6
2019-05-03T18:48:09.532Z,9.6
2019-05-03T18:49:10.308Z,9.6
2019-05-03T18:50:11.106Z,9.6
2019-05-03T18:51:11.900Z,9.6
2019-05-03T18:52:12.656Z,9.6
2019-05-03T18:53:15.755Z,9.6
2019-05-03T18:54:16.530Z,9.5
2019-05-03T18:55:20.093Z,9.5
2019-05-03T18:56:20.860Z,9.6
2019-05-03T18:58:22.144Z,9.5
2019-05-03T18:59:25.005Z,9.5
2019-05-03T19:00:25.782Z,9.5
2019-05-03T19:01:26.556Z,9.6
2019-05-03T19:02:27.334Z,9.5
2019-05-03T19:03:28.092Z,9.5
2019-05-03T19:04:38.237Z,9.5
2019-05-03T19:05:41.811Z,9.5
2019-05-03T19:06:42.589Z,9.5
2019-05-03T19:07:45.955Z,9.5
2019-05-03T19:11:48.266Z,9.5
2019-05-03T19:12:49.028Z,9.5
2019-05-03T19:13:49.810Z,9.5
2019-05-03T19:14:50.582Z,9.5
2019-05-03T19:15:55.753Z,9.5
2019-05-03T19:16:56.520Z,9.5
2019-05-03T19:17:57.288Z,9.5
2019-05-03T19:19:58.540Z,9.5
2019-05-03T19:20:59.341Z,9.5
2019-05-03T19:22:00.106Z,9.5
2019-05-03T19:23:00.870Z,9.5
2019-05-03T19:24:01.645Z,9.5
2019-05-03T19:25:02.405Z,9.5
2019-05-03T19:26:20.002Z,9.4
2019-05-03T19:27:20.780Z,9.5
2019-05-03T19:28:21.545Z,9.5
2019-05-03T19:29:22.317Z,9.5
2019-05-03T19:30:25.112Z,9.5
2019-05-03T19:31:25.908Z,9.5
2019-05-03T19:32:29.062Z,9.5
2019-05-03T19:33:29.838Z,9.4
2019-05-03T19:34:30.614Z,9.4
2019-05-03T19:35:31.379Z,9.4
2019-05-03T19:36:37.800Z,9.4
2019-05-03T19:37:38.564Z,9.4
2019-05-03T19:38:39.334Z,9.4
2019-05-03T19:39:40.109Z,9.4
2019-05-03T19:40:40.878Z,9.4
2019-05-03T19:41:41.674Z,9.5
2019-05-03T19:42:44.605Z,9.5
2019-05-03T19:43:45.477Z,9.4
2019-05-03T19:44:46.240Z,9.4
2019-05-03T19:45:47.013Z,9.4
2019-05-03T19:46:50.576Z,9.4
2019-05-03T19:47:51.330Z,9.3
2019-05-03T19:48:52.088Z,9.3
2019-05-03T19:49:55.464Z,9.3
2019-05-03T19:50:56.236Z,9.3
2019-05-03T19:51:57.027Z,9.3
2019-05-03T19:52:57.794Z,9.3
2019-05-03T19:53:58.574Z,9.3
2019-05-03T19:54:59.348Z,9.3
2019-05-03T19:56:00.111Z,9.2
2019-05-03T19:57:05.667Z,9.3
2019-05-03T19:58:06.424Z,9.3
2019-05-03T19:59:07.188Z,9.3
2019-05-03T20:00:07.972Z,9.2
2019-05-03T20:01:08.725Z,9.2
2019-05-03T20:02:09.516Z,9.2
2019-05-03T20:03:10.276Z,9.2
2019-05-03T20:04:11.043Z,9.3
2019-05-03T20:05:11.798Z,9.3
2019-05-03T20:06:14.359Z,9.2
2019-05-03T20:07:17.973Z,9.3
2019-05-03T20:08:18.742Z,9.3
2019-05-03T20:09:19.520Z,9.3
2019-05-03T20:10:20.280Z,9.2
2019-05-03T20:11:21.050Z,9.2
2019-05-03T20:12:21.869Z,9.3
2019-05-03T20:13:37.447Z,9.3
2019-05-03T20:14:38.226Z,9.3
2019-05-03T20:15:38.989Z,9.2
2019-05-03T20:16:39.761Z,9.2
2019-05-03T20:19:01.064Z,9.1
2019-05-03T20:20:01.836Z,9.2
2019-05-03T20:21:04.081Z,9.2
2019-05-03T20:22:05.860Z,9.2
2019-05-03T20:23:06.640Z,9.2
2019-05-03T20:24:07.412Z,9.1
2019-05-03T20:25:08.177Z,9.1
2019-05-03T20:26:08.955Z,9.1
2019-05-03T20:27:09.729Z,9.1
2019-05-03T20:28:11.266Z,9.2
2019-05-03T20:29:12.029Z,9.1
2019-05-03T20:30:14.869Z,9.2
2019-05-03T20:31:15.915Z,9.1
2019-05-03T20:32:16.742Z,9.1
2019-05-03T20:33:17.528Z,9.1
2019-05-03T20:34:18.306Z,9.1
2019-05-03T20:35:20.189Z,9.1
2019-05-03T20:36:20.959Z,9
2019-05-03T20:37:21.741Z,9.1
2019-05-03T20:38:25.759Z,9
2019-05-03T20:39:26.532Z,9
2019-05-03T20:40:27.289Z,9
2019-05-03T20:41:28.271Z,9.1
2019-05-03T20:42:29.069Z,9.1
2019-05-03T20:43:29.855Z,9
2019-05-03T20:44:30.626Z,9.1
2019-05-03T20:45:31.401Z,9
2019-05-03T20:46:32.158Z,9
2019-05-03T20:47:34.718Z,8.9
2019-05-03T20:48:38.379Z,8.9
2019-05-03T20:49:39.143Z,8.9
2019-05-03T20:50:39.915Z,8.9
2019-05-03T20:51:40.668Z,8.9
2019-05-03T20:52:41.433Z,8.9
2019-05-03T20:53:42.215Z,8.9
2019-05-03T20:54:45.506Z,8.9
2019-05-03T20:55:46.267Z,8.9
2019-05-03T20:57:47.530Z,8.9
2019-05-03T20:58:51.084Z,8.9
2019-05-03T20:59:54.797Z,8.9
2019-05-03T21:01:56.063Z,8.8
2019-05-03T21:02:58.094Z,8.8
2019-05-03T21:03:58.884Z,8.8
2019-05-03T21:04:59.666Z,8.7
2019-05-03T21:06:05.391Z,8.7
2019-05-03T21:07:06.232Z,8.7
2019-05-03T21:08:07.056Z,8.7
2019-05-03T21:09:26.775Z,8.7
2019-05-03T21:10:27.536Z,8.7
2019-05-03T21:12:30.150Z,8.6
2019-05-03T21:13:44.557Z,8.7
2019-05-03T21:14:45.965Z,8.7
2019-05-03T21:15:46.727Z,8.7
2019-05-03T21:17:47.983Z,8.7
2019-05-03T21:18:48.738Z,8.7
2019-05-03T21:19:50.325Z,8.7
2019-05-03T21:20:51.081Z,8.7
2019-05-03T21:21:51.849Z,8.7
2019-05-03T21:22:52.620Z,8.7
2019-05-03T21:26:16.705Z,8.7
2019-05-03T21:28:18.159Z,8.6
2019-05-03T21:29:18.919Z,8.6
2019-05-03T21:30:25.399Z,8.5
2019-05-03T21:31:26.159Z,8.5
2019-05-03T21:32:26.923Z,8.5
2019-05-03T21:33:27.685Z,8.5
2019-05-03T21:34:28.443Z,8.5
2019-05-03T21:35:42.516Z,8.4
2019-05-03T21:36:46.009Z,8.4
2019-05-03T21:37:46.775Z,8.4
2019-05-03T21:39:48.032Z,8.4
2019-05-03T21:40:49.568Z,8.4
2019-05-03T21:41:50.346Z,8.3
2019-05-03T21:42:51.108Z,8.3
2019-05-03T21:43:51.888Z,8.3
2019-05-03T21:44:56.224Z,8.4
2019-05-03T21:45:57.004Z,8.3
2019-05-03T21:46:57.773Z,8.3
2019-05-03T21:47:58.533Z,8.3
2019-05-03T21:48:59.298Z,8.3
2019-05-03T21:50:00.056Z,8.3
2019-05-03T21:51:05.594Z,8.3
2019-05-03T21:52:06.341Z,8.2
2019-05-03T21:53:07.118Z,8.2
2019-05-03T21:54:07.885Z,8.2
2019-05-03T21:55:08.640Z,8.2
2019-05-03T21:56:09.424Z,8.2
2019-05-03T21:57:10.186Z,8.2
2019-05-03T21:58:10.949Z,8.2
2019-05-03T21:59:11.725Z,8.2
2019-05-03T22:00:12.480Z,8.2
2019-05-03T22:01:16.271Z,8.2
2019-05-03T22:02:17.056Z,8.2
2019-05-03T22:03:17.811Z,8.2
2019-05-03T22:04:18.572Z,8.2
2019-05-03T22:05:19.330Z,8.2
2019-05-03T22:06:20.112Z,8.2
2019-05-03T22:07:20.873Z,8.2
2019-05-03T22:08:21.650Z,8.2
2019-05-03T22:09:22.402Z,8.2
2019-05-03T22:10:23.167Z,8.2
2019-05-03T22:11:28.788Z,8.2
2019-05-03T22:12:29.551Z,8.2
2019-05-03T22:13:35.323Z,8.2
2019-05-03T22:14:36.090Z,8.1
2019-05-03T22:15:36.853Z,8.2
2019-05-03T22:16:37.640Z,8.2
2019-05-03T22:17:38.403Z,8.2
2019-05-03T22:18:39.164Z,8.1
2019-05-03T22:19:39.925Z,8.1
2019-05-03T22:20:40.687Z,8.1
2019-05-03T22:21:45.922Z,8.1
2019-05-03T22:22:46.685Z,8.1
2019-05-03T22:23:47.439Z,8
2019-05-03T22:24:48.207Z,8
2019-05-03T22:25:48.967Z,8
2019-05-03T22:26:49.749Z,8
2019-05-03T22:27:50.504Z,8
2019-05-03T22:28:51.269Z,8
2019-05-03T22:29:52.029Z,8
2019-05-03T22:30:55.299Z,8
2019-05-03T22:31:59.369Z,8
2019-05-03T22:33:00.127Z,8
2019-05-03T22:34:00.885Z,8.1
2019-05-03T22:35:01.651Z,8.1
2019-05-03T22:36:09.559Z,8.1
2019-05-03T22:37:10.345Z,8.1
2019-05-03T22:38:11.110Z,8
2019-05-03T22:39:11.873Z,8
2019-05-03T22:40:14.476Z,7.9
2019-05-03T22:41:15.522Z,7.9
2019-05-03T22:42:19.080Z,7.9
2019-05-03T22:43:19.867Z,7.9
2019-05-03T22:44:20.633Z,8
2019-05-03T22:45:21.388Z,8
2019-05-03T22:46:22.155Z,8
2019-05-03T22:47:22.938Z,7.9
2019-05-03T22:48:26.131Z,7.9
2019-05-03T22:49:26.888Z,7.9
2019-05-03T22:50:27.657Z,7.9
2019-05-03T22:51:28.416Z,7.9
2019-05-03T22:52:31.971Z,7.9
2019-05-03T22:53:34.746Z,7.8
2019-05-03T22:54:35.491Z,7.8
2019-05-03T22:55:36.261Z,7.7
2019-05-03T22:56:37.027Z,7.8
2019-05-03T22:58:38.301Z,7.8
2019-05-03T22:59:39.072Z,7.7
2019-05-03T23:00:39.828Z,7.6
2019-05-03T23:01:40.594Z,7.6
2019-05-03T23:02:47.463Z,7.6
2019-05-03T23:03:48.225Z,7.5
2019-05-03T23:04:48.989Z,7.5
2019-05-03T23:06:50.241Z,7.4
2019-05-03T23:07:51.020Z,7.5
2019-05-03T23:08:51.779Z,7.4
2019-05-03T23:09:56.587Z,7.4
2019-05-03T23:10:57.349Z,7.5
2019-05-03T23:11:58.117Z,7.5
2019-05-03T23:12:59.669Z,7.4
2019-05-03T23:14:00.435Z,7.5
2019-05-03T23:15:01.211Z,7.5
2019-05-03T23:16:01.967Z,7.5
2019-05-03T23:17:02.724Z,7.5
2019-05-03T23:18:05.520Z,7.5
2019-05-03T23:19:06.410Z,7.5
2019-05-03T23:20:07.170Z,7.5
2019-05-03T23:21:07.927Z,7.5
2019-05-03T23:22:08.696Z,7.5
2019-05-03T23:23:15.753Z,7.5
2019-05-03T23:24:16.515Z,7.5
2019-05-03T23:25:17.279Z,7.5
2019-05-03T23:26:18.043Z,7.5
2019-05-03T23:27:18.805Z,7.5
2019-05-03T23:28:19.579Z,7.5
2019-05-03T23:29:20.349Z,7.5
2019-05-03T23:30:21.107Z,7.5
2019-05-03T23:31:21.867Z,7.4
2019-05-03T23:32:24.915Z,7.4
2019-05-03T23:33:26.475Z,7.4
2019-05-03T23:34:27.241Z,7.4
2019-05-03T23:35:27.993Z,7.4
2019-05-03T23:36:36.779Z,7.5
2019-05-03T23:37:37.552Z,7.5
2019-05-03T23:38:38.328Z,7.4
2019-05-03T23:39:39.091Z,7.4
2019-05-03T23:40:39.847Z,7.4
2019-05-03T23:41:40.615Z,7.3
2019-05-03T23:42:41.370Z,7.4
2019-05-03T23:43:46.969Z,7.4
2019-05-03T23:44:47.737Z,7.4
2019-05-03T23:45:48.495Z,7.4
2019-05-03T23:46:49.261Z,7.4
2019-05-03T23:47:50.022Z,7.4
2019-05-03T23:48:50.789Z,7.3
2019-05-03T23:49:51.551Z,7.4
2019-05-03T23:50:52.316Z,7.3
2019-05-03T23:51:54.941Z,7.3
2019-05-03T23:52:55.808Z,7.3
2019-05-03T23:53:59.358Z,7.3
2019-05-03T23:55:00.130Z,7.2
2019-05-03T23:56:00.890Z,7.2
2019-05-03T23:57:01.655Z,7.2
2019-05-03T23:58:02.415Z,7.2
2019-05-03T23:59:06.218Z,7.2
